createdAt,value
2023-05-07T00:01:18.938Z,5.40
2023-05-07T00:03:49.122Z,4.80
2023-05-07T00:06:17.795Z,4.90
2023-05-07T00:08:46.641Z,4.60
2023-05-07T00:11:15.090Z,4.70
2023-05-07T00:13:43.853Z,5.30
2023-05-07T00:16:12.521Z,4.60
2023-05-07T00:18:41.654Z,5.00
2023-05-07T00:21:10.504Z,5.00
2023-05-07T00:23:39.016Z,4.50
2023-05-07T00:26:07.333Z,5.40
2023-05-07T00:28:36.184Z,4.60
2023-05-07T00:31:04.493Z,4.10
2023-05-07T00:33:32.804Z,4.30
2023-05-07T00:36:03.196Z,4.40
2023-05-07T00:39:01.464Z,4.60
2023-05-07T00:41:29.883Z,4.30
2023-05-07T00:43:58.374Z,5.00
2023-05-07T00:46:27.413Z,4.40
2023-05-07T00:48:56.366Z,4.20
2023-05-07T00:51:28.730Z,4.00
2023-05-07T00:53:57.312Z,3.90
2023-05-07T00:56:26.724Z,4.50
2023-05-07T00:58:56.240Z,4.10
2023-05-07T01:01:24.694Z,4.30
2023-05-07T01:03:53.154Z,4.20
2023-05-07T01:06:24.798Z,3.90
2023-05-07T01:08:57.087Z,4.50
2023-05-07T01:11:26.971Z,4.70
2023-05-07T01:13:56.138Z,6.10
2023-05-07T01:16:24.549Z,4.10
2023-05-07T01:18:53.547Z,3.50
2023-05-07T01:21:27.874Z,4.20
2023-05-07T01:23:56.377Z,4.30
2023-05-07T01:26:25.213Z,4.00
2023-05-07T01:28:53.615Z,4.30
2023-05-07T01:31:22.487Z,5.10
2023-05-07T01:33:53.510Z,4.10
2023-05-07T01:36:27.304Z,4.30
2023-05-07T01:39:21.582Z,4.10
2023-05-07T01:41:50.878Z,4.50
2023-05-07T01:44:20.797Z,4.50
2023-05-07T01:46:49.717Z,4.40
2023-05-07T01:49:19.644Z,4.10
2023-05-07T01:51:48.006Z,5.50
2023-05-07T01:54:16.830Z,5.60
2023-05-07T01:56:46.042Z,5.90
2023-05-07T01:59:14.882Z,6.80
2023-05-07T02:01:43.739Z,6.20
2023-05-07T02:04:12.511Z,6.10
2023-05-07T02:06:41.481Z,6.10
2023-05-07T02:09:10.353Z,6.60
2023-05-07T02:11:38.696Z,6.70
2023-05-07T02:14:07.636Z,6.90
2023-05-07T02:16:36.067Z,7.10
2023-05-07T02:19:04.839Z,7.30
2023-05-07T02:21:33.225Z,7.70
2023-05-07T02:24:01.672Z,8.30
2023-05-07T02:26:30.488Z,7.20
2023-05-07T02:28:58.840Z,8.90
2023-05-07T02:31:27.205Z,8.10
2023-05-07T02:33:56.062Z,8.90
2023-05-07T02:36:24.416Z,9.10
2023-05-07T02:39:18.257Z,7.90
2023-05-07T02:41:47.928Z,7.60
2023-05-07T02:44:16.824Z,9.20
2023-05-07T02:46:45.679Z,8.30
2023-05-07T02:49:13.988Z,8.80
2023-05-07T02:51:42.303Z,7.50
2023-05-07T02:54:10.736Z,8.10
2023-05-07T02:56:39.109Z,8.40
2023-05-07T02:59:07.413Z,8.50
2023-05-07T03:01:36.077Z,7.80
2023-05-07T03:04:05.004Z,7.70
2023-05-07T03:06:33.486Z,7.40
2023-05-07T03:09:01.809Z,7.20
2023-05-07T03:11:31.893Z,7.60
2023-05-07T03:14:00.338Z,7.30
2023-05-07T03:16:29.698Z,6.30
2023-05-07T03:18:58.175Z,5.10
2023-05-07T03:21:27.722Z,6.60
2023-05-07T03:23:56.218Z,7.20
2023-05-07T03:26:24.447Z,6.70
2023-05-07T03:28:53.371Z,9.20
2023-05-07T03:31:21.978Z,6.50
2023-05-07T03:33:56.159Z,7.30
2023-05-07T03:36:26.542Z,5.90
2023-05-07T03:38:55.028Z,6.10
2023-05-07T03:41:23.493Z,6.40
2023-05-07T03:43:52.008Z,6.10
2023-05-07T03:46:20.779Z,6.60
2023-05-07T03:48:49.192Z,7.10
2023-05-07T03:51:18.036Z,6.60
2023-05-07T03:53:46.351Z,6.80
2023-05-07T03:56:14.695Z,7.00
2023-05-07T03:58:42.976Z,6.80
2023-05-07T04:01:11.399Z,6.20
2023-05-07T04:03:39.955Z,6.60
2023-05-07T04:06:08.562Z,6.00
2023-05-07T04:08:37.450Z,6.50
2023-05-07T04:11:05.967Z,6.50
2023-05-07T04:13:34.891Z,7.30
2023-05-07T04:16:05.291Z,6.80
2023-05-07T04:18:33.649Z,7.30
2023-05-07T04:21:02.054Z,7.50
2023-05-07T04:23:30.574Z,6.90
2023-05-07T04:25:59.342Z,7.20
2023-05-07T04:28:27.635Z,7.30
2023-05-07T04:30:56.316Z,7.80
2023-05-07T04:33:25.226Z,7.00
2023-05-07T04:35:53.693Z,7.50
2023-05-07T04:38:47.688Z,7.70
2023-05-07T04:41:16.443Z,7.00
2023-05-07T04:43:45.302Z,7.40
2023-05-07T04:46:13.849Z,7.50
2023-05-07T04:48:42.209Z,6.80
2023-05-07T04:51:11.437Z,5.40
2023-05-07T04:53:41.270Z,5.90
2023-05-07T04:56:10.473Z,5.90
2023-05-07T04:58:39.051Z,5.90
2023-05-07T05:01:08.334Z,5.40
2023-05-07T05:03:36.763Z,5.10
2023-05-07T05:06:06.107Z,5.20
2023-05-07T05:08:34.466Z,5.00
2023-05-07T05:11:04.029Z,4.80
2023-05-07T05:13:32.367Z,4.70
2023-05-07T05:16:01.538Z,5.00
2023-05-07T05:18:30.558Z,4.70
2023-05-07T05:20:59.004Z,3.80
2023-05-07T05:23:27.406Z,4.30
2023-05-07T05:25:59.794Z,4.50
2023-05-07T05:28:29.240Z,4.60
2023-05-07T05:30:58.199Z,4.60
2023-05-07T05:33:26.969Z,4.10
2023-05-07T05:35:55.978Z,4.90
2023-05-07T05:38:41.228Z,5.00
2023-05-07T05:41:09.825Z,4.50
2023-05-07T05:43:38.681Z,4.20
2023-05-07T05:46:07.594Z,3.90
2023-05-07T05:48:36.122Z,3.80
2023-05-07T05:51:05.111Z,3.30
2023-05-07T05:53:33.985Z,3.70
2023-05-07T05:56:02.848Z,3.60
2023-05-07T05:58:31.401Z,4.20
2023-05-07T06:01:00.013Z,3.40
2023-05-07T06:03:28.537Z,3.10
2023-05-07T06:05:57.403Z,3.10
2023-05-07T06:08:25.750Z,3.00
2023-05-07T06:10:54.048Z,2.90
2023-05-07T06:13:22.669Z,3.10
2023-05-07T06:15:51.761Z,3.20
2023-05-07T06:18:20.261Z,2.50
2023-05-07T06:20:49.009Z,2.40
2023-05-07T06:23:18.194Z,2.20
2023-05-07T06:25:51.816Z,2.10
2023-05-07T06:28:20.361Z,2.50
2023-05-07T06:30:50.323Z,2.10
2023-05-07T06:33:18.652Z,2.10
2023-05-07T06:35:47.503Z,2.10
2023-05-07T06:38:16.258Z,2.00
2023-05-07T06:40:44.739Z,1.80
2023-05-07T06:43:13.287Z,1.70
2023-05-07T06:45:41.700Z,1.80
2023-05-07T06:48:10.358Z,1.50
2023-05-07T06:50:39.197Z,1.60
2023-05-07T06:53:07.845Z,1.50
2023-05-07T06:55:36.329Z,1.60
2023-05-07T06:58:04.957Z,1.70
2023-05-07T07:00:33.256Z,1.80
2023-05-07T07:03:01.903Z,1.70
2023-05-07T07:05:30.382Z,1.60
2023-05-07T07:07:59.452Z,1.70
2023-05-07T07:10:27.788Z,1.50
2023-05-07T07:12:56.380Z,2.00
2023-05-07T07:15:26.405Z,1.70
2023-05-07T07:17:55.283Z,16.00
2023-05-07T07:20:24.229Z,5.50
2023-05-07T07:22:53.165Z,2.00
2023-05-07T07:25:21.686Z,1.80
2023-05-07T07:27:50.880Z,1.90
2023-05-07T07:30:19.416Z,2.00
2023-05-07T07:32:48.486Z,1.60
2023-05-07T07:35:17.413Z,1.30
2023-05-07T07:37:46.823Z,1.70
2023-05-07T07:40:15.625Z,1.90
2023-05-07T07:42:44.058Z,1.40
2023-05-07T07:45:13.432Z,1.90
2023-05-07T07:47:42.480Z,1.60
2023-05-07T07:50:12.382Z,1.80
2023-05-07T07:52:45.408Z,1.60
2023-05-07T07:55:14.098Z,1.80
2023-05-07T07:57:42.653Z,2.30
2023-05-07T08:00:11.790Z,2.00
2023-05-07T08:02:40.983Z,1.90
2023-05-07T08:05:09.800Z,1.70
2023-05-07T08:07:38.327Z,1.40
2023-05-07T08:10:06.987Z,1.80
2023-05-07T08:12:36.093Z,2.00
2023-05-07T08:15:05.081Z,1.90
2023-05-07T08:17:34.987Z,84.50
2023-05-07T08:20:03.692Z,1.90
2023-05-07T08:22:32.088Z,1.70
2023-05-07T08:25:01.717Z,1.60
2023-05-07T08:27:30.540Z,2.00
2023-05-07T08:30:00.238Z,1.80
2023-05-07T08:32:28.981Z,1.90
2023-05-07T08:34:58.169Z,2.10
2023-05-07T08:37:29.270Z,2.00
2023-05-07T08:39:58.505Z,2.00
2023-05-07T08:42:30.062Z,1.80
2023-05-07T08:45:01.299Z,2.50
2023-05-07T08:47:36.154Z,1.80
2023-05-07T08:50:06.381Z,2.20
2023-05-07T08:52:36.609Z,1.90
2023-05-07T08:55:07.116Z,2.00
2023-05-07T08:57:36.695Z,1.70
2023-05-07T09:00:05.784Z,1.50
2023-05-07T09:02:36.593Z,2.80
2023-05-07T09:05:05.902Z,2.70
2023-05-07T09:07:34.297Z,4.00
2023-05-07T09:10:05.560Z,3.00
2023-05-07T09:12:34.047Z,2.90
2023-05-07T09:15:04.248Z,9.10
2023-05-07T09:17:33.089Z,3.70
2023-05-07T09:20:10.631Z,6.80
2023-05-07T09:22:40.134Z,8.30
2023-05-07T09:25:09.731Z,3.10
2023-05-07T09:27:38.915Z,2.20
2023-05-07T09:30:11.302Z,2.20
2023-05-07T09:32:39.692Z,2.20
2023-05-07T09:35:17.333Z,2.40
2023-05-07T09:38:02.433Z,9.30
2023-05-07T09:40:32.596Z,4.50
2023-05-07T09:43:15.116Z,4.30
2023-05-07T09:45:44.259Z,2.60
2023-05-07T09:48:16.070Z,2.50
2023-05-07T09:50:52.044Z,2.60
2023-05-07T09:53:21.248Z,2.60
2023-05-07T09:55:50.169Z,2.00
2023-05-07T09:58:20.667Z,1.80
2023-05-07T10:00:51.132Z,2.50
2023-05-07T10:03:22.375Z,2.80
2023-05-07T10:05:52.272Z,2.20
2023-05-07T10:08:21.434Z,1.80
2023-05-07T10:10:51.159Z,1.30
2023-05-07T10:13:21.821Z,2.10
2023-05-07T10:15:51.855Z,1.80
2023-05-07T10:18:24.909Z,1.90
2023-05-07T10:20:55.676Z,2.10
2023-05-07T10:23:26.232Z,1.20
2023-05-07T10:26:00.616Z,1.60
2023-05-07T10:28:33.147Z,1.80
2023-05-07T10:31:23.573Z,1.20
2023-05-07T10:33:56.147Z,1.20
2023-05-07T10:36:26.429Z,2.10
2023-05-07T10:38:56.311Z,1.80
2023-05-07T10:41:25.532Z,1.30
2023-05-07T10:43:54.132Z,1.20
2023-05-07T10:46:23.976Z,1.10
2023-05-07T10:49:04.648Z,2.10
2023-05-07T10:51:34.909Z,1.50
2023-05-07T10:54:22.057Z,1.10
2023-05-07T10:56:52.404Z,1.20
2023-05-07T10:59:28.594Z,1.10
2023-05-07T11:02:05.639Z,3.50
2023-05-07T11:04:36.353Z,1.30
2023-05-07T11:10:06.000Z,1.50
2023-05-07T11:12:41.528Z,2.20
2023-05-07T11:15:12.976Z,1.90
2023-05-07T11:17:54.489Z,1.80
2023-05-07T11:20:53.891Z,1.90
2023-05-07T11:23:42.066Z,2.10
2023-05-07T11:26:14.763Z,1.80
2023-05-07T11:28:45.063Z,2.00
2023-05-07T11:31:13.421Z,1.60
2023-05-07T11:33:42.394Z,2.30
2023-05-07T11:36:11.285Z,4.00
2023-05-07T11:38:40.266Z,6.10
2023-05-07T11:41:09.681Z,6.60
2023-05-07T11:43:38.230Z,3.30
2023-05-07T11:46:12.062Z,3.20
2023-05-07T11:48:42.678Z,2.30
2023-05-07T11:51:14.263Z,1.80
2023-05-07T11:53:45.466Z,2.80
2023-05-07T11:56:15.926Z,2.80
2023-05-07T11:58:46.317Z,2.40
2023-05-07T12:01:16.516Z,33.20
2023-05-07T12:03:47.602Z,2.30
2023-05-07T12:06:18.305Z,1.70
2023-05-07T12:08:48.370Z,2.10
2023-05-07T12:11:24.526Z,1.80
2023-05-07T12:13:58.732Z,2.10
2023-05-07T12:16:29.029Z,2.60
2023-05-07T12:19:00.180Z,4.20
2023-05-07T12:21:28.947Z,4.90
2023-05-07T12:23:57.946Z,2.90
2023-05-07T12:26:26.370Z,2.80
2023-05-07T12:28:54.816Z,2.40
2023-05-07T12:31:23.217Z,2.00
2023-05-07T12:33:52.250Z,1.90
2023-05-07T12:36:22.371Z,1.80
2023-05-07T12:38:57.035Z,2.00
2023-05-07T12:41:28.464Z,2.40
2023-05-07T12:43:59.027Z,1.90
2023-05-07T12:46:27.415Z,1.80
2023-05-07T12:48:55.839Z,2.20
2023-05-07T12:51:24.728Z,2.90
2023-05-07T12:53:58.212Z,2.50
2023-05-07T12:56:26.708Z,2.30
2023-05-07T12:58:59.163Z,3.40
2023-05-07T13:01:32.470Z,2.60
2023-05-07T13:04:10.092Z,3.00
2023-05-07T13:06:38.656Z,2.20
2023-05-07T13:09:07.015Z,1.70
2023-05-07T13:11:35.810Z,1.90
2023-05-07T13:14:04.319Z,2.50
2023-05-07T13:16:32.670Z,1.80
2023-05-07T13:19:01.572Z,1.90
2023-05-07T13:21:33.232Z,1.60
2023-05-07T13:24:01.494Z,1.70
2023-05-07T13:26:32.576Z,2.10
2023-05-07T13:29:00.853Z,1.70
2023-05-07T13:31:29.153Z,1.70
2023-05-07T13:34:01.793Z,2.10
2023-05-07T13:36:30.504Z,2.10
2023-05-07T13:39:00.853Z,1.90
2023-05-07T13:41:29.374Z,1.60
2023-05-07T13:43:58.186Z,2.80
2023-05-07T13:46:26.509Z,3.10
2023-05-07T13:48:54.859Z,3.80
2023-05-07T13:51:23.297Z,3.50
2023-05-07T13:53:51.747Z,1.80
2023-05-07T13:56:20.118Z,1.90
2023-05-07T13:58:59.604Z,3.00
2023-05-07T14:01:29.277Z,3.70
2023-05-07T14:04:01.144Z,2.40
2023-05-07T14:06:29.504Z,2.50
2023-05-07T14:08:59.428Z,2.80
2023-05-07T14:11:27.781Z,2.60
2023-05-07T14:13:58.152Z,5.20
2023-05-07T14:16:26.621Z,3.70
2023-05-07T14:18:57.952Z,2.80
2023-05-07T14:21:27.446Z,2.50
2023-05-07T14:23:57.835Z,2.30
2023-05-07T14:26:28.237Z,2.40
2023-05-07T14:28:59.502Z,2.10
2023-05-07T14:31:28.224Z,2.20
2023-05-07T14:33:59.232Z,2.50
2023-05-07T14:36:28.469Z,2.50
2023-05-07T14:39:21.029Z,2.10
2023-05-07T14:41:49.449Z,2.60
2023-05-07T14:44:17.810Z,1.90
2023-05-07T14:46:46.725Z,2.00
2023-05-07T14:49:19.621Z,1.90
2023-05-07T14:51:48.642Z,4.10
2023-05-07T14:54:17.584Z,4.40
2023-05-07T14:56:46.168Z,4.30
2023-05-07T14:59:17.287Z,3.70
2023-05-07T15:01:46.928Z,3.00
2023-05-07T15:04:15.840Z,2.20
2023-05-07T15:06:44.378Z,4.20
2023-05-07T15:09:12.950Z,3.50
2023-05-07T15:11:41.980Z,2.40
2023-05-07T15:14:10.441Z,1.90
2023-05-07T15:16:39.529Z,2.20
2023-05-07T15:19:08.686Z,2.10
2023-05-07T15:21:37.881Z,3.40
2023-05-07T15:24:07.214Z,3.30
2023-05-07T15:26:35.844Z,2.10
2023-05-07T15:29:09.302Z,2.40
2023-05-07T15:31:40.308Z,5.00
2023-05-07T15:34:08.840Z,2.20
2023-05-07T15:36:37.302Z,2.60
2023-05-07T15:39:08.713Z,2.50
2023-05-07T15:41:38.316Z,1.90
2023-05-07T15:44:07.558Z,1.60
2023-05-07T15:46:36.035Z,2.20
2023-05-07T15:49:08.782Z,3.10
2023-05-07T15:51:37.420Z,3.10
2023-05-07T15:54:06.727Z,2.30
2023-05-07T15:56:36.486Z,2.10
2023-05-07T15:59:04.870Z,3.10
2023-05-07T16:01:33.893Z,2.30
2023-05-07T16:04:02.599Z,3.80
2023-05-07T16:06:31.766Z,79.90
2023-05-07T16:09:01.156Z,5.30
2023-05-07T16:11:34.619Z,3.50
2023-05-07T16:14:03.675Z,3.70
2023-05-07T16:16:36.437Z,5.40
2023-05-07T16:19:04.912Z,3.00
2023-05-07T16:21:33.739Z,2.70
2023-05-07T16:24:03.083Z,3.50
2023-05-07T16:26:32.073Z,3.20
2023-05-07T16:29:02.073Z,3.90
2023-05-07T16:31:30.461Z,4.60
2023-05-07T16:33:58.924Z,2.70
2023-05-07T16:36:30.160Z,2.80
2023-05-07T16:39:25.513Z,2.40
2023-05-07T16:41:53.839Z,3.10
2023-05-07T16:44:22.283Z,2.80
2023-05-07T16:46:51.453Z,2.40
2023-05-07T16:49:19.802Z,4.00
2023-05-07T16:51:49.017Z,3.90
2023-05-07T16:54:17.837Z,5.80
2023-05-07T16:56:46.174Z,3.20
2023-05-07T16:59:15.038Z,2.70
2023-05-07T17:01:43.519Z,3.40
2023-05-07T17:04:12.204Z,4.00
2023-05-07T17:06:40.754Z,4.10
2023-05-07T17:09:09.807Z,3.80
2023-05-07T17:11:38.717Z,3.90
2023-05-07T17:14:07.069Z,4.70
2023-05-07T17:16:35.661Z,3.50
2023-05-07T17:19:04.726Z,4.10
2023-05-07T17:21:33.268Z,3.50
2023-05-07T17:24:01.623Z,6.00
2023-05-07T17:26:29.977Z,4.20
2023-05-07T17:28:58.350Z,4.70
2023-05-07T17:31:27.163Z,4.90
2023-05-07T17:33:56.037Z,4.40
2023-05-07T17:36:24.326Z,5.00
2023-05-07T17:39:17.154Z,5.70
2023-05-07T17:41:45.406Z,4.80
2023-05-07T17:44:14.335Z,5.40
2023-05-07T17:46:42.681Z,4.30
2023-05-07T17:49:11.467Z,4.20
2023-05-07T17:51:52.539Z,3.40
2023-05-07T17:54:23.232Z,3.80
2023-05-07T17:56:52.230Z,4.40
2023-05-07T17:59:21.182Z,8.20
2023-05-07T18:01:49.983Z,10.60
2023-05-07T18:04:23.009Z,17.50
2023-05-07T18:06:52.230Z,15.50
2023-05-07T18:09:21.859Z,23.80
2023-05-07T18:11:51.835Z,21.60
2023-05-07T18:14:24.530Z,18.20
2023-05-07T18:16:53.183Z,15.90
2023-05-07T18:19:21.699Z,10.40
2023-05-07T18:21:50.391Z,10.00
2023-05-07T18:24:20.661Z,7.00
2023-05-07T18:26:50.011Z,6.90
2023-05-07T18:29:18.671Z,10.40
2023-05-07T18:31:47.551Z,11.60
2023-05-07T18:34:16.499Z,14.40
2023-05-07T18:36:45.467Z,8.80
2023-05-07T18:39:39.848Z,14.40
2023-05-07T18:42:09.585Z,18.00
2023-05-07T18:44:38.832Z,16.80
2023-05-07T18:47:08.989Z,16.40
2023-05-07T18:49:38.755Z,16.60
2023-05-07T18:52:08.985Z,12.30
2023-05-07T18:54:38.067Z,9.60
2023-05-07T18:57:07.057Z,9.30
2023-05-07T18:59:36.180Z,11.10
2023-05-07T19:02:05.446Z,13.20
2023-05-07T19:04:34.820Z,14.80
2023-05-07T19:07:03.748Z,14.20
2023-05-07T19:09:33.410Z,14.30
2023-05-07T19:12:02.680Z,14.00
2023-05-07T19:14:31.337Z,11.60
2023-05-07T19:17:00.469Z,15.90
2023-05-07T19:19:29.507Z,25.50
2023-05-07T19:21:58.409Z,24.00
2023-05-07T19:24:27.073Z,38.80
2023-05-07T19:26:56.583Z,39.30
2023-05-07T19:29:26.180Z,29.10
2023-05-07T19:31:55.892Z,37.40
2023-05-07T19:34:26.747Z,41.40
2023-05-07T19:36:56.019Z,33.30
2023-05-07T19:39:37.978Z,37.00
2023-05-07T19:42:06.839Z,69.40
2023-05-07T19:44:36.759Z,50.20
2023-05-07T19:47:07.669Z,39.20
2023-05-07T19:49:40.937Z,37.80
2023-05-07T19:52:09.709Z,31.20
2023-05-07T19:54:42.852Z,33.00
2023-05-07T19:57:13.911Z,25.50
2023-05-07T19:59:42.991Z,24.10
2023-05-07T20:02:13.159Z,19.80
2023-05-07T20:04:41.730Z,16.80
2023-05-07T20:07:12.121Z,26.80
2023-05-07T20:09:40.769Z,20.80
2023-05-07T20:12:09.587Z,22.50
2023-05-07T20:14:38.042Z,15.70
2023-05-07T20:17:06.516Z,17.90
2023-05-07T20:19:35.090Z,9.40
2023-05-07T20:22:03.680Z,9.90
2023-05-07T20:24:38.595Z,10.50
2023-05-07T20:27:06.997Z,9.60
2023-05-07T20:29:35.565Z,9.50
2023-05-07T20:32:04.065Z,7.60
2023-05-07T20:34:32.576Z,7.40
2023-05-07T20:37:02.126Z,7.70
2023-05-07T20:39:30.647Z,8.20
2023-05-07T20:42:00.175Z,7.30
2023-05-07T20:44:30.941Z,8.00
2023-05-07T20:46:59.292Z,9.40
2023-05-07T20:49:27.734Z,9.90
2023-05-07T20:51:57.000Z,9.40
2023-05-07T20:54:28.439Z,9.00
2023-05-07T20:56:58.428Z,9.40
2023-05-07T20:59:27.330Z,7.90
2023-05-07T21:01:57.172Z,8.70
2023-05-07T21:04:25.548Z,10.20
2023-05-07T21:06:53.961Z,9.30
2023-05-07T21:09:22.394Z,11.50
2023-05-07T21:11:50.975Z,13.10
2023-05-07T21:14:20.659Z,12.40
2023-05-07T21:16:49.058Z,12.80
2023-05-07T21:19:17.607Z,14.20
2023-05-07T21:21:46.000Z,15.50
2023-05-07T21:24:14.435Z,15.20
2023-05-07T21:26:42.791Z,14.40
2023-05-07T21:29:11.301Z,11.90
2023-05-07T21:31:39.710Z,13.40
2023-05-07T21:34:08.300Z,14.80
2023-05-07T21:36:36.676Z,14.70
2023-05-07T21:39:05.322Z,13.10
2023-05-07T21:41:33.797Z,17.50
2023-05-07T21:44:03.096Z,34.60
2023-05-07T21:46:31.711Z,36.10
2023-05-07T21:49:00.207Z,32.40
2023-05-07T21:51:28.683Z,28.60
2023-05-07T21:53:57.057Z,27.10
2023-05-07T21:56:25.545Z,23.70
2023-05-07T21:58:53.955Z,21.40
2023-05-07T22:01:23.173Z,16.70
2023-05-07T22:03:52.212Z,17.20
2023-05-07T22:06:22.709Z,14.70
2023-05-07T22:08:51.416Z,13.80
2023-05-07T22:11:19.907Z,12.20
2023-05-07T22:13:49.529Z,13.20
2023-05-07T22:16:17.940Z,12.00
2023-05-07T22:18:46.401Z,10.60
2023-05-07T22:21:14.866Z,13.60
2023-05-07T22:23:43.282Z,11.90
2023-05-07T22:26:13.332Z,11.80
2023-05-07T22:28:41.731Z,10.90
2023-05-07T22:31:10.065Z,11.90
2023-05-07T22:33:38.621Z,10.80
2023-05-07T22:36:08.157Z,10.70
2023-05-07T22:39:01.777Z,10.10
2023-05-07T22:41:30.171Z,9.70
2023-05-07T22:43:59.358Z,9.10
2023-05-07T22:46:27.973Z,9.30
2023-05-07T22:48:56.449Z,8.90
2023-05-07T22:51:24.864Z,9.90
2023-05-07T22:53:53.264Z,9.40
2023-05-07T22:56:21.732Z,9.50
2023-05-07T22:58:50.175Z,8.90
2023-05-07T23:01:19.323Z,10.10
2023-05-07T23:03:47.855Z,9.30
2023-05-07T23:06:16.387Z,9.30
2023-05-07T23:08:44.782Z,10.20
2023-05-07T23:11:13.269Z,9.40
2023-05-07T23:13:41.700Z,10.40
2023-05-07T23:16:10.208Z,10.10
2023-05-07T23:18:38.645Z,11.20
2023-05-07T23:21:07.165Z,11.00
2023-05-07T23:23:36.053Z,12.40
2023-05-07T23:26:04.379Z,11.10
2023-05-07T23:28:32.770Z,25.40
2023-05-07T23:31:01.247Z,37.60
2023-05-07T23:33:29.770Z,33.30
2023-05-07T23:36:02.537Z,21.10
2023-05-07T23:38:56.458Z,33.80
2023-05-07T23:41:24.902Z,43.30
2023-05-07T23:43:53.542Z,56.00
2023-05-07T23:46:22.147Z,61.90
2023-05-07T23:48:50.620Z,52.40
2023-05-07T23:51:18.981Z,55.40
2023-05-07T23:53:47.398Z,46.50
2023-05-07T23:56:15.820Z,33.60
2023-05-07T23:58:44.122Z,17.00
